createdAt,value
2019-04-03T00:01:10.170Z,11.23
2019-04-03T00:03:38.780Z,10.77
2019-04-03T00:06:07.440Z,10.70
2019-04-03T00:08:36.671Z,10.53
2019-04-03T00:11:08.551Z,10.93
2019-04-03T00:13:35.912Z,11.43
2019-04-03T00:16:04.853Z,10.77
2019-04-03T00:18:33.472Z,11.30
2019-04-03T00:21:02.075Z,11.10
2019-04-03T00:23:30.633Z,10.80
2019-04-03T00:25:59.232Z,11.07
2019-04-03T00:28:27.879Z,11.50
2019-04-03T00:30:56.496Z,11.57
2019-04-03T00:33:25.100Z,11.53
2019-04-03T00:35:53.908Z,10.87
2019-04-03T00:38:24.222Z,10.90
2019-04-03T00:40:54.298Z,11.00
2019-04-03T00:43:24.785Z,11.53
2019-04-03T00:45:54.678Z,10.77
2019-04-03T00:48:25.732Z,10.97
2019-04-03T00:50:56.641Z,11.00
2019-04-03T00:53:25.780Z,10.87
2019-04-03T00:55:56.466Z,11.40
2019-04-03T00:58:39.299Z,11.20
2019-04-03T01:01:10.259Z,10.80
2019-04-03T01:03:39.506Z,11.33
2019-04-03T01:06:08.423Z,10.90
2019-04-03T01:08:37.201Z,10.93
2019-04-03T01:11:06.039Z,10.27
2019-04-03T01:13:34.699Z,10.67
2019-04-03T01:16:03.511Z,10.53
2019-04-03T01:18:34.354Z,11.10
2019-04-03T01:21:02.307Z,10.80
2019-04-03T01:23:30.904Z,10.77
2019-04-03T01:25:59.477Z,10.63
2019-04-03T01:28:28.328Z,10.77
2019-04-03T01:30:56.881Z,11.10
2019-04-03T01:33:25.479Z,10.87
2019-04-03T01:35:54.055Z,10.90
2019-04-03T01:38:22.668Z,11.20
2019-04-03T01:40:51.246Z,11.40
2019-04-03T01:43:19.835Z,11.10
2019-04-03T01:45:48.400Z,10.93
2019-04-03T01:48:17.032Z,10.97
2019-04-03T01:50:45.576Z,11.87
2019-04-03T01:53:14.182Z,11.17
2019-04-03T01:55:42.899Z,11.13
2019-04-03T01:58:11.516Z,10.80
2019-04-03T02:00:40.094Z,11.33
2019-04-03T02:03:10.321Z,10.57
2019-04-03T02:05:39.000Z,11.27
2019-04-03T02:08:07.596Z,10.40
2019-04-03T02:10:36.435Z,11.20
2019-04-03T02:13:05.127Z,11.00
2019-04-03T02:15:33.699Z,10.80
2019-04-03T02:18:02.312Z,10.70
2019-04-03T02:20:30.967Z,10.87
2019-04-03T02:23:00.520Z,11.10
2019-04-03T02:25:31.537Z,10.67
2019-04-03T02:27:59.622Z,11.70
2019-04-03T02:30:28.412Z,10.90
2019-04-03T02:32:57.641Z,10.67
2019-04-03T02:35:26.469Z,10.60
2019-04-03T02:37:55.037Z,11.13
2019-04-03T02:40:23.710Z,10.93
2019-04-03T02:42:52.416Z,11.20
2019-04-03T02:45:23.998Z,10.57
2019-04-03T02:47:51.307Z,11.07
2019-04-03T02:50:27.030Z,11.00
2019-04-03T02:52:58.133Z,10.80
2019-04-03T02:55:26.227Z,11.57
2019-04-03T02:57:54.792Z,11.90
2019-04-03T03:00:23.790Z,11.07
2019-04-03T03:02:52.524Z,11.87
2019-04-03T03:05:21.264Z,11.07
2019-04-03T03:07:50.440Z,11.30
2019-04-03T03:10:20.260Z,11.33
2019-04-03T03:12:49.727Z,11.43
2019-04-03T03:15:19.525Z,11.00
2019-04-03T03:17:49.127Z,11.27
2019-04-03T03:20:21.058Z,10.57
2019-04-03T03:22:51.170Z,10.80
2019-04-03T03:25:21.050Z,11.33
2019-04-03T03:27:50.146Z,11.17
2019-04-03T03:30:35.730Z,10.73
2019-04-03T03:32:49.680Z,10.93
2019-04-03T03:35:27.256Z,10.70
2019-04-03T03:37:50.119Z,11.00
2019-04-03T03:40:19.314Z,10.80
2019-04-03T03:42:48.246Z,11.10
2019-04-03T03:45:21.067Z,11.63
2019-04-03T03:47:51.088Z,10.67
2019-04-03T03:50:24.516Z,11.37
2019-04-03T03:52:54.020Z,11.20
2019-04-03T03:55:25.476Z,11.47
2019-04-03T03:57:55.089Z,11.30
2019-04-03T04:00:24.734Z,11.00
2019-04-03T04:02:54.111Z,11.67
2019-04-03T04:05:23.120Z,11.47
2019-04-03T04:07:52.090Z,11.53
2019-04-03T04:10:23.552Z,12.00
2019-04-03T04:12:51.579Z,11.97
2019-04-03T04:15:20.317Z,11.90
2019-04-03T04:17:51.065Z,12.20
2019-04-03T04:20:19.160Z,11.27
2019-04-03T04:22:50.504Z,11.83
2019-04-03T04:25:19.070Z,11.90
2019-04-03T04:27:48.800Z,12.17
2019-04-03T04:30:19.972Z,11.57
2019-04-03T04:32:48.694Z,11.47
2019-04-03T04:35:17.565Z,11.50
2019-04-03T04:37:47.734Z,11.57
2019-04-03T04:40:16.474Z,11.80
2019-04-03T04:42:45.213Z,11.40
2019-04-03T04:45:14.282Z,11.60
2019-04-03T04:47:45.539Z,12.77
2019-04-03T04:50:14.682Z,11.63
2019-04-03T04:52:43.446Z,11.80
2019-04-03T04:55:12.194Z,12.00
2019-04-03T04:57:41.371Z,11.83
2019-04-03T05:00:10.395Z,12.07
2019-04-03T05:02:39.077Z,11.80
2019-04-03T05:05:08.987Z,11.43
2019-04-03T05:07:38.029Z,12.17
2019-04-03T05:10:07.735Z,11.27
2019-04-03T05:12:36.328Z,11.57
2019-04-03T05:15:06.341Z,11.87
2019-04-03T05:17:35.299Z,11.80
2019-04-03T05:20:04.907Z,11.80
2019-04-03T05:22:33.778Z,11.83
2019-04-03T05:25:02.408Z,11.70
2019-04-03T05:27:33.336Z,11.60
2019-04-03T05:30:01.227Z,11.30
2019-04-03T05:32:29.828Z,12.37
2019-04-03T05:34:58.411Z,11.80
2019-04-03T05:37:28.454Z,11.77
2019-04-03T05:39:57.031Z,12.40
2019-04-03T05:42:26.958Z,11.63
2019-04-03T05:44:56.026Z,11.80
2019-04-03T05:47:24.630Z,11.90
2019-04-03T05:49:55.614Z,12.50
2019-04-03T05:52:23.649Z,12.30
2019-04-03T05:54:52.957Z,12.20
2019-04-03T05:57:21.665Z,12.67
2019-04-03T05:59:59.510Z,12.20
2019-04-03T06:02:22.088Z,12.67
2019-04-03T06:04:50.766Z,12.37
2019-04-03T06:07:19.318Z,12.80
2019-04-03T06:09:47.926Z,12.83
2019-04-03T06:12:18.782Z,12.27
2019-04-03T06:14:49.621Z,14.00
2019-04-03T06:17:16.949Z,12.70
2019-04-03T06:19:45.557Z,12.70
2019-04-03T06:22:16.464Z,12.40
2019-04-03T06:24:44.690Z,12.50
2019-04-03T06:27:13.353Z,12.17
2019-04-03T06:29:41.988Z,12.63
2019-04-03T06:32:10.561Z,13.37
2019-04-03T06:34:42.479Z,13.07
2019-04-03T06:37:09.394Z,13.80
2019-04-03T06:39:37.978Z,12.90
2019-04-03T06:42:06.737Z,12.90
2019-04-03T06:44:35.456Z,13.40
2019-04-03T06:47:04.010Z,13.20
2019-04-03T06:49:32.605Z,12.80
2019-04-03T06:52:01.254Z,13.33
2019-04-03T06:54:31.693Z,14.33
2019-04-03T06:57:00.344Z,13.50
2019-04-03T06:59:28.953Z,13.07
2019-04-03T07:01:57.517Z,13.37
2019-04-03T07:04:26.195Z,13.57
2019-04-03T07:06:56.186Z,12.80
2019-04-03T07:09:34.217Z,13.57
2019-04-03T07:11:57.338Z,13.43
2019-04-03T07:14:26.873Z,13.03
2019-04-03T07:16:55.791Z,13.17
2019-04-03T07:19:24.488Z,12.93
2019-04-03T07:21:55.207Z,13.10
2019-04-03T07:24:23.302Z,13.40
2019-04-03T07:26:51.868Z,13.00
2019-04-03T07:29:20.719Z,12.43
2019-04-03T07:31:49.296Z,12.93
2019-04-03T07:34:17.877Z,12.30
2019-04-03T07:36:46.769Z,12.23
2019-04-03T07:39:17.032Z,12.60
2019-04-03T07:41:45.863Z,12.93
2019-04-03T07:44:14.426Z,11.90
2019-04-03T07:46:43.104Z,12.63
2019-04-03T07:49:13.899Z,12.37
2019-04-03T07:51:43.303Z,12.73
2019-04-03T07:54:12.145Z,12.33
2019-04-03T07:56:40.754Z,12.37
2019-04-03T07:59:09.335Z,12.40
2019-04-03T08:01:38.795Z,12.90
2019-04-03T08:04:08.143Z,12.03
2019-04-03T08:06:36.735Z,11.80
2019-04-03T08:09:17.542Z,11.90
2019-04-03T08:11:46.158Z,11.93
2019-04-03T08:14:14.734Z,11.67
2019-04-03T08:16:43.414Z,11.23
2019-04-03T08:19:12.010Z,11.90
2019-04-03T08:21:40.597Z,11.13
2019-04-03T08:24:09.507Z,12.23
2019-04-03T08:26:38.175Z,11.70
2019-04-03T08:29:06.904Z,11.67
2019-04-03T08:31:35.655Z,12.67
2019-04-03T08:34:14.865Z,11.80
2019-04-03T08:36:34.656Z,12.53
2019-04-03T08:39:05.616Z,12.53
2019-04-03T08:41:36.911Z,12.33
2019-04-03T08:44:08.204Z,11.20
2019-04-03T08:46:35.530Z,11.73
2019-04-03T08:49:04.162Z,11.90
2019-04-03T08:51:34.345Z,12.30
2019-04-03T08:54:03.589Z,12.97
2019-04-03T08:56:32.272Z,12.30
2019-04-03T08:59:00.846Z,12.57
2019-04-03T09:01:29.588Z,12.07
2019-04-03T09:03:58.147Z,12.13
2019-04-03T09:06:27.005Z,12.10
2019-04-03T09:08:57.272Z,12.80
2019-04-03T09:11:25.844Z,12.53
2019-04-03T09:13:54.856Z,12.20
2019-04-03T09:16:24.748Z,11.80
2019-04-03T09:18:53.549Z,12.43
2019-04-03T09:21:22.131Z,12.00
2019-04-03T09:23:50.716Z,12.17
2019-04-03T09:26:19.351Z,11.97
2019-04-03T09:28:48.260Z,12.50
2019-04-03T09:31:18.949Z,11.93
2019-04-03T09:33:47.316Z,11.67
2019-04-03T09:36:15.886Z,11.47
2019-04-03T09:38:44.560Z,12.63
2019-04-03T09:41:13.122Z,12.30
2019-04-03T09:43:41.651Z,12.13
2019-04-03T09:46:10.214Z,11.90
2019-04-03T09:48:39.173Z,12.50
2019-04-03T09:51:09.362Z,11.57
2019-04-03T09:53:38.062Z,11.87
2019-04-03T09:56:08.040Z,12.50
2019-04-03T09:58:37.178Z,11.97
2019-04-03T10:01:06.482Z,12.10
2019-04-03T10:03:35.170Z,12.00
2019-04-03T10:06:03.915Z,12.40
2019-04-03T10:08:32.512Z,13.10
2019-04-03T10:11:01.409Z,13.13
2019-04-03T10:13:30.221Z,12.80
2019-04-03T10:15:59.244Z,13.53
2019-04-03T10:18:28.236Z,12.83
2019-04-03T10:20:56.927Z,12.80
2019-04-03T10:23:26.588Z,11.97
2019-04-03T10:25:55.782Z,12.77
2019-04-03T10:28:24.398Z,12.60
2019-04-03T10:30:54.098Z,11.73
2019-04-03T10:33:23.288Z,14.23
2019-04-03T10:35:51.822Z,13.90
2019-04-03T10:38:20.710Z,13.72
2019-04-03T10:40:49.374Z,13.75
2019-04-03T10:43:18.039Z,13.18
2019-04-03T10:45:46.620Z,13.05
2019-04-03T10:48:15.511Z,12.78
2019-04-03T10:50:44.178Z,12.82
2019-04-03T10:53:12.935Z,12.28
2019-04-03T10:55:41.583Z,12.85
2019-04-03T10:58:10.284Z,12.90
2019-04-03T11:00:39.213Z,12.78
2019-04-03T11:03:08.449Z,13.60
2019-04-03T11:05:37.220Z,13.15
2019-04-03T11:08:06.110Z,13.65
2019-04-03T11:10:34.828Z,13.53
2019-04-03T11:13:03.864Z,12.60
2019-04-03T11:15:32.686Z,13.25
2019-04-03T11:18:01.595Z,13.25
2019-04-03T11:20:30.151Z,13.35
2019-04-03T11:23:05.360Z,13.85
2019-04-03T11:25:29.068Z,13.03
2019-04-03T11:27:57.732Z,12.98
2019-04-03T11:30:26.649Z,12.35
2019-04-03T11:32:55.281Z,12.98
2019-04-03T11:35:23.952Z,13.00
2019-04-03T11:37:52.823Z,14.05
2019-04-03T11:40:24.742Z,13.40
2019-04-03T11:42:52.477Z,14.15
2019-04-03T11:45:21.325Z,13.22
2019-04-03T11:47:50.161Z,13.85
2019-04-03T11:50:19.390Z,13.83
2019-04-03T11:52:47.959Z,15.50
2019-04-03T11:55:16.947Z,13.67
2019-04-03T11:57:47.413Z,13.70
2019-04-03T12:00:18.119Z,12.90
2019-04-03T12:02:46.691Z,12.37
2019-04-03T12:05:20.480Z,11.83
2019-04-03T12:07:47.964Z,11.25
2019-04-03T12:10:16.806Z,11.63
2019-04-03T12:12:45.440Z,12.82
2019-04-03T12:15:16.189Z,11.88
2019-04-03T12:17:44.863Z,12.05
2019-04-03T12:20:16.346Z,11.68
2019-04-03T12:22:45.224Z,12.55
2019-04-03T12:25:14.579Z,12.60
2019-04-03T12:27:45.522Z,12.45
2019-04-03T12:30:14.124Z,13.28
2019-04-03T12:32:47.499Z,12.53
2019-04-03T12:35:15.344Z,11.70
2019-04-03T12:37:44.052Z,12.63
2019-04-03T12:40:13.639Z,12.58
2019-04-03T12:42:42.303Z,12.55
2019-04-03T12:45:11.740Z,12.37
2019-04-03T12:47:42.862Z,12.60
2019-04-03T12:50:12.792Z,12.30
2019-04-03T12:52:44.001Z,12.47
2019-04-03T12:55:11.966Z,12.85
2019-04-03T12:57:40.591Z,12.30
2019-04-03T13:00:12.544Z,13.65
2019-04-03T13:02:41.581Z,12.82
2019-04-03T13:05:10.983Z,12.30
2019-04-03T13:07:39.746Z,11.70
2019-04-03T13:10:09.994Z,12.33
2019-04-03T13:12:39.175Z,12.23
2019-04-03T13:15:09.546Z,13.33
2019-04-03T13:17:38.310Z,12.43
2019-04-03T13:20:08.058Z,12.20
2019-04-03T13:22:36.814Z,12.00
2019-04-03T13:25:09.599Z,11.97
2019-04-03T13:27:38.290Z,12.23
2019-04-03T13:30:13.015Z,11.95
2019-04-03T13:32:41.733Z,11.45
2019-04-03T13:35:10.695Z,13.03
2019-04-03T13:37:39.713Z,12.53
2019-04-03T13:40:09.520Z,11.40
2019-04-03T13:42:38.122Z,11.80
2019-04-03T13:45:09.356Z,12.05
2019-04-03T13:47:41.134Z,12.93
2019-04-03T13:50:11.022Z,12.60
2019-04-03T13:52:43.071Z,12.40
2019-04-03T13:55:10.354Z,12.30
2019-04-03T13:57:39.451Z,11.83
2019-04-03T14:00:20.252Z,12.00
2019-04-03T14:02:40.326Z,11.70
2019-04-03T14:05:09.763Z,11.23
2019-04-03T14:07:41.582Z,11.23
2019-04-03T14:10:09.884Z,11.27
2019-04-03T14:12:43.256Z,11.53
2019-04-03T14:15:09.777Z,10.87
2019-04-03T14:17:38.689Z,11.30
2019-04-03T14:20:08.925Z,11.07
2019-04-03T14:22:37.765Z,10.50
2019-04-03T14:25:21.647Z,11.37
2019-04-03T14:27:47.790Z,11.10
2019-04-03T14:30:16.532Z,10.93
2019-04-03T14:32:45.608Z,10.30
2019-04-03T14:35:44.521Z,11.43
2019-04-03T14:37:44.810Z,10.60
2019-04-03T14:40:14.912Z,11.33
2019-04-03T14:42:43.542Z,10.37
2019-04-03T14:45:14.436Z,10.63
2019-04-03T14:47:44.613Z,10.47
2019-04-03T14:50:13.830Z,9.80
2019-04-03T14:52:42.410Z,10.30
2019-04-03T14:55:18.044Z,10.30
2019-04-03T14:57:41.496Z,10.00
2019-04-03T15:00:25.188Z,9.93
2019-04-03T15:02:42.690Z,9.83
2019-04-03T15:05:11.858Z,10.13
2019-04-03T15:07:40.578Z,10.47
2019-04-03T15:10:09.753Z,9.87
2019-04-03T15:12:39.920Z,10.57
2019-04-03T15:15:09.668Z,9.63
2019-04-03T15:17:38.821Z,10.00
2019-04-03T15:20:10.634Z,10.90
2019-04-03T15:22:39.527Z,10.90
2019-04-03T15:25:08.837Z,10.53
2019-04-03T15:27:38.104Z,10.43
2019-04-03T15:30:11.009Z,10.30
2019-04-03T15:32:40.032Z,10.93
2019-04-03T15:35:09.143Z,9.90
2019-04-03T15:37:39.911Z,10.07
2019-04-03T15:40:08.644Z,10.80
2019-04-03T15:42:39.769Z,10.67
2019-04-03T15:45:09.804Z,10.60
2019-04-03T15:47:44.114Z,11.17
2019-04-03T15:50:11.986Z,10.40
2019-04-03T15:52:43.129Z,11.87
2019-04-03T15:55:11.761Z,11.03
2019-04-03T15:57:40.811Z,10.83
2019-04-03T16:00:12.633Z,11.17
2019-04-03T16:02:44.537Z,11.33
2019-04-03T16:05:13.562Z,11.37
2019-04-03T16:07:42.655Z,10.50
2019-04-03T16:10:11.810Z,10.87
2019-04-03T16:12:42.990Z,10.33
2019-04-03T16:15:11.651Z,10.53
2019-04-03T16:17:40.348Z,10.50
2019-04-03T16:20:10.625Z,10.97
2019-04-03T16:22:39.285Z,10.30
2019-04-03T16:25:09.138Z,11.10
2019-04-03T16:27:37.992Z,10.70
2019-04-03T16:30:08.539Z,10.53
2019-04-03T16:32:37.601Z,10.60
2019-04-03T16:35:07.722Z,10.70
2019-04-03T16:37:36.384Z,10.43
2019-04-03T16:40:08.004Z,10.33
2019-04-03T16:42:37.034Z,10.03
2019-04-03T16:45:13.240Z,9.80
2019-04-03T16:47:44.128Z,9.57
2019-04-03T16:50:13.124Z,9.30
2019-04-03T16:52:41.758Z,10.00
2019-04-03T16:55:11.812Z,9.83
2019-04-03T16:57:40.568Z,10.10
2019-04-03T17:00:10.371Z,10.07
2019-04-03T17:02:39.285Z,10.03
2019-04-03T17:05:11.953Z,10.40
2019-04-03T17:07:40.480Z,11.30
2019-04-03T17:10:10.478Z,11.33
2019-04-03T17:12:39.466Z,10.90
2019-04-03T17:15:09.747Z,11.30
2019-04-03T17:17:39.061Z,11.43
2019-04-03T17:20:09.239Z,11.30
2019-04-03T17:22:40.821Z,11.63
2019-04-03T17:25:08.806Z,11.00
2019-04-03T17:27:37.809Z,11.60
2019-04-03T17:30:09.305Z,11.47
2019-04-03T17:32:38.799Z,11.90
2019-04-03T17:35:07.981Z,12.17
2019-04-03T17:37:37.213Z,12.30
2019-04-03T17:40:08.708Z,12.77
2019-04-03T17:42:39.354Z,12.73
2019-04-03T17:45:08.051Z,12.47
2019-04-03T17:47:36.650Z,12.73
2019-04-03T17:50:09.823Z,12.27
2019-04-03T17:52:38.517Z,12.70
2019-04-03T17:55:11.750Z,12.67
2019-04-03T17:57:40.416Z,11.87
2019-04-03T18:00:13.737Z,12.40
2019-04-03T18:02:42.418Z,13.17
2019-04-03T18:05:11.752Z,13.10
2019-04-03T18:07:40.525Z,12.97
2019-04-03T18:10:12.448Z,12.67
2019-04-03T18:12:39.587Z,13.17
2019-04-03T18:15:09.510Z,12.80
2019-04-03T18:17:38.146Z,12.90
2019-04-03T18:20:08.104Z,12.90
2019-04-03T18:22:36.656Z,12.77
2019-04-03T18:25:08.564Z,12.73
2019-04-03T18:27:37.447Z,12.93
2019-04-03T18:30:11.175Z,12.87
2019-04-03T18:32:38.457Z,12.70
2019-04-03T18:35:08.028Z,12.83
2019-04-03T18:37:36.742Z,13.10
2019-04-03T18:40:07.018Z,12.23
2019-04-03T18:42:35.678Z,12.50
2019-04-03T18:45:05.951Z,12.70
2019-04-03T18:47:41.199Z,12.23
2019-04-03T18:50:09.509Z,12.80
2019-04-03T18:52:38.575Z,12.40
2019-04-03T18:55:07.813Z,12.80
2019-04-03T18:57:36.407Z,12.63
2019-04-03T19:00:09.867Z,13.57
2019-04-03T19:02:41.406Z,13.07
2019-04-03T19:05:13.842Z,12.47
2019-04-03T19:07:40.558Z,12.77
2019-04-03T19:10:09.722Z,12.60
2019-04-03T19:12:38.298Z,12.73
2019-04-03T19:15:07.651Z,12.90
2019-04-03T19:17:36.343Z,12.80
2019-04-03T19:20:10.602Z,13.07
2019-04-03T19:22:37.093Z,12.70
2019-04-03T19:25:07.666Z,12.63
2019-04-03T19:27:36.304Z,12.43
2019-04-03T19:30:07.682Z,12.70
2019-04-03T19:32:36.420Z,12.07
2019-04-03T19:35:09.435Z,13.40
2019-04-03T19:37:38.551Z,12.70
2019-04-03T19:40:09.764Z,12.27
2019-04-03T19:42:38.243Z,13.40
2019-04-03T19:45:12.977Z,12.80
2019-04-03T19:47:40.937Z,12.83
2019-04-03T19:50:09.894Z,12.70
2019-04-03T19:52:41.544Z,12.70
2019-04-03T19:55:09.488Z,12.07
2019-04-03T19:57:38.136Z,12.77
2019-04-03T20:00:09.052Z,12.63
2019-04-03T20:02:38.174Z,12.30
2019-04-03T20:05:07.936Z,12.90
2019-04-03T20:07:36.598Z,12.80
2019-04-03T20:10:09.974Z,12.67
2019-04-03T20:12:38.676Z,12.87
2019-04-03T20:15:09.378Z,12.17
2019-04-03T20:17:37.934Z,12.60
2019-04-03T20:20:08.581Z,12.87
2019-04-03T20:22:37.843Z,12.70
2019-04-03T20:25:07.737Z,12.87
2019-04-03T20:27:36.473Z,12.43
2019-04-03T20:30:08.985Z,12.77
2019-04-03T20:32:40.079Z,12.97
2019-04-03T20:35:08.116Z,12.67
2019-04-03T20:37:36.721Z,12.33
2019-04-03T20:40:06.721Z,12.27
2019-04-03T20:42:35.343Z,12.90
2019-04-03T20:45:05.734Z,13.00
2019-04-03T20:47:34.330Z,12.07
2019-04-03T20:50:03.075Z,12.10
2019-04-03T20:52:31.669Z,12.50
2019-04-03T20:55:00.236Z,12.80
2019-04-03T20:57:28.841Z,12.60
2019-04-03T21:00:02.469Z,12.33
2019-04-03T21:02:28.052Z,12.37
2019-04-03T21:04:56.612Z,12.63
2019-04-03T21:07:25.206Z,12.63
2019-04-03T21:09:53.860Z,12.07
2019-04-03T21:12:22.454Z,12.67
2019-04-03T21:14:51.015Z,12.83
2019-04-03T21:17:19.630Z,12.77
2019-04-03T21:19:48.196Z,12.63
2019-04-03T21:22:16.807Z,12.47
2019-04-03T21:24:45.376Z,13.50
2019-04-03T21:27:14.062Z,12.60
2019-04-03T21:29:42.646Z,12.83
2019-04-03T21:32:11.254Z,12.97
2019-04-03T21:34:42.612Z,12.73
2019-04-03T21:37:10.142Z,12.57
2019-04-03T21:39:38.735Z,13.17
2019-04-03T21:42:07.335Z,12.03
2019-04-03T21:44:35.898Z,12.60
2019-04-03T21:47:04.562Z,12.80
2019-04-03T21:49:33.134Z,12.80
2019-04-03T21:52:01.731Z,12.73
2019-04-03T21:54:30.312Z,12.80
2019-04-03T21:56:58.907Z,12.57
2019-04-03T21:59:27.474Z,12.63
2019-04-03T22:01:56.520Z,12.43
2019-04-03T22:04:25.094Z,13.10
2019-04-03T22:06:53.707Z,12.63
2019-04-03T22:09:22.272Z,12.80
2019-04-03T22:11:50.831Z,13.23
2019-04-03T22:14:19.441Z,13.03
2019-04-03T22:16:50.501Z,12.90
2019-04-03T22:19:18.302Z,13.40
2019-04-03T22:21:46.938Z,13.17
2019-04-03T22:24:15.540Z,12.40
2019-04-03T22:26:44.108Z,12.73
2019-04-03T22:29:12.776Z,13.17
2019-04-03T22:31:41.353Z,12.73
2019-04-03T22:34:10.001Z,14.10
2019-04-03T22:36:38.547Z,12.47
2019-04-03T22:39:08.059Z,12.80
2019-04-03T22:41:37.274Z,12.17
2019-04-03T22:44:05.878Z,13.20
2019-04-03T22:46:34.450Z,13.43
2019-04-03T22:49:03.044Z,12.50
2019-04-03T22:51:31.619Z,12.90
2019-04-03T22:54:00.345Z,13.17
2019-04-03T22:56:28.899Z,12.90
2019-04-03T22:58:57.419Z,13.10
2019-04-03T23:01:26.071Z,13.60
2019-04-03T23:03:54.730Z,11.93
2019-04-03T23:06:23.366Z,12.60
2019-04-03T23:08:53.806Z,12.70
2019-04-03T23:11:22.176Z,13.23
2019-04-03T23:13:50.792Z,12.43
2019-04-03T23:16:19.350Z,12.83
2019-04-03T23:18:47.950Z,12.93
2019-04-03T23:21:16.446Z,13.30
2019-04-03T23:23:45.109Z,12.97
2019-04-03T23:26:13.846Z,12.83
2019-04-03T23:28:42.468Z,12.87
2019-04-03T23:31:12.865Z,13.00
2019-04-03T23:33:41.266Z,12.50
2019-04-03T23:36:09.769Z,12.43
2019-04-03T23:38:38.358Z,12.87
2019-04-03T23:41:06.941Z,12.67
2019-04-03T23:43:35.522Z,13.23
2019-04-03T23:46:04.248Z,12.60
2019-04-03T23:48:32.802Z,12.73
2019-04-03T23:51:01.334Z,12.87
2019-04-03T23:53:31.797Z,12.67
2019-04-03T23:56:00.154Z,12.37
2019-04-03T23:58:28.723Z,12.50
